neil on the web!

ADDS Results

1736 UTC 30 November 2021

EGJB 301720Z 25020KT 9999 VCSH FEW004 BKN008 11/11 Q1014
EGJB 301650Z 25020KT 9999 -RA FEW005 BKN011 11/10 Q1015
EGJB 301620Z 25020KT 9999 6000W -RA FEW002 BKN005 11/10 Q1015
EGJB 301550Z 26016KT 9999 VCSH FEW002 BKN006 11/11 Q1015
TAF EGJB 301704Z 3018/0103 25022KT 9999 FEW006 BKN011
PROB40
TEMPO 3018/3022 6000 -RA BKN006
BECMG 3020/3022 24030G40KT
TEMPO 3022/0102 5000 RA BKN006
PROB30
TEMPO 3023/0102 2000 +RA BKN003
BECMG 0102/0103 29023G35KT
EGJJ 301720Z 25023KT 9999 -RA FEW003 BKN009 11/10 Q1015
EGJJ 301650Z 25024KT 9999 VCSH FEW003 BKN008 11/10 Q1015
EGJJ 301620Z 26021KT 9999 VCSH FEW005 BKN010 11/10 Q1016 RESHRA
EGJJ 301550Z 26019KT 9999 VCSH FEW004 SCT008 BKN010 11/10 Q1016
TAF EGJJ 301704Z 3018/0103 25022KT 9999 FEW005 BKN011
PROB40
TEMPO 3018/3023 6000 -RA BKN006
BECMG 3021/3023 23022G35KT
TEMPO 3023/0103 5000 RA BKN006
PROB30
TEMPO 0101/0103 2000 +RA BKN003
BECMG 0102/0103 29022G35KT
EGKK 301720Z 22010KT 9999 BKN014 11/09 Q1009
EGKK 301650Z 22009KT 9999 BKN015 11/09 Q1009
EGKK 301620Z 23006KT 9999 BKN018 11/09 Q1010
EGKK 301550Z 24008KT 9999 BKN012 11/09 Q1010
TAF EGKK 301700Z 3018/0124 24010KT 9999 BKN016
TEMPO 3018/3023 BKN012
PROB30
TEMPO 3018/3023 8000 -RADZ BKN008
TEMPO 3020/0106 25015G25KT
TEMPO 3023/0107 6000 RA SHRA BKN008
PROB30
TEMPO 0102/0107 3000 +SHRA
PROB30
TEMPO 0106/0115 30015G25KT
PROB30
TEMPO 0114/0118 6000 SHRA
BECMG 0115/0118 32009KT
EGSS 301720Z AUTO 23014KT 9999 SCT018 10/08 Q1006
EGSS 301650Z AUTO 23012KT 9999 BKN016 10/08 Q1007
EGSS 301620Z AUTO 24011KT 9999 SCT017 10/08 Q1007
EGSS 301550Z AUTO 24010KT 9999 FEW017 10/08 Q1008
TAF EGSS 301706Z 3018/0124 24012KT 9999 SCT012 BKN018
TEMPO 3018/3022 7000 -DZ BKN009
BECMG 3022/0101 22017G28KT 6000 RA BKN008
TEMPO 3023/0102 3000 +RA RADZ BKN004
BECMG 0102/0105 28012KT 9999 NSW SCT020
PROB30
TEMPO 0105/0112 29016G26KT 7000 SHRA BKN014
TEMPO 0112/0117 6000 SHRA BKN013
BECMG 0115/0118 34010KT
EGGW 301720Z AUTO 24017KT 9999 BKN013/// OVC017/// 10/08 Q1006
EGGW 301650Z 24013KT 9999 BKN013 OVC019 10/08 Q1007
EGGW 301620Z 25013KT 9999 BKN015 10/08 Q1008
EGGW 301550Z 24013KT 9999 SCT015 10/09 Q1008
TAF EGGW 301706Z 3018/0118 24015KT 9999 SCT010 BKN016
TEMPO 3018/3021 6000 -DZ BKN007
BECMG 3021/3024 22020G30KT 6000 RA BKN006
TEMPO 3023/0102 3000 +RA RADZ BKN003
BECMG 0101/0104 28015KT 9999 NSW SCT018
PROB30
TEMPO 0104/0112 29018G28KT 7000 SHRA BKN012
TEMPO 0112/0117 6000 SHRA BKN012
BECMG 0115/0118 34010KT
EGSH 301720Z 22010KT 190V250 9999 FEW019 10/09 Q1004 NOSIG
EGSH 301650Z 22011KT 190V250 9999 FEW019 10/09 Q1005
EGSH 301620Z 22009KT 190V250 9999 FEW019 11/09 Q1005 NOSIG
EGSH 301550Z 22008KT 9999 SCT019 10/09 Q1006
TAF EGSH 301656Z 3018/0103 21010KT 9999 SCT018
TEMPO 3018/3023 BKN012
PROB30
TEMPO 3018/3023 BKN008
BECMG 3021/3024 22017G27KT
TEMPO 3023/0101 6000 RA BKN006
PROB30
TEMPO 3023/0101 4000 RADZ BKN004
TEMPO 0101/0103 6000 -RADZ BKN008
EGLC 301720Z AUTO 23010KT 210V270 9999 SCT018 BKN024 12/08 Q1008
EGLC 301650Z AUTO 24011KT 9999 FEW023 12/08 Q1008
EGLC 301620Z AUTO 24011KT 9999 SCT017 BKN022 12/09 Q1009
EGLC 301550Z AUTO 24008KT 9999 BKN018 OVC024 12/09 Q1009
TAF EGLC 301701Z 3018/3022 25012KT 9999 SCT020
TEMPO 3018/3022 BKN014
PROB30
TEMPO 3018/3022 4000 RADZ BKN008
TEMPO 3020/3022 24018G28KT
EGMC 301720Z 24012KT 9999 FEW018 11/09 Q1007
EGMC 301650Z 24013KT 9999 FEW020 11/08 Q1007
EGMC 301620Z 24010KT 9999 FEW023 11/09 Q1008
EGMC 301550Z 24011KT 9999 FEW019 11/08 Q1008
TAF EGMC 301701Z 3018/0103 25012KT 9999 BKN020
TEMPO 3018/3023 BKN012
PROB30
TEMPO 3018/3023 8000 -RADZ BKN009
TEMPO 3020/0103 25015G25KT
TEMPO 3023/0103 6000 RA SHRA BKN008
PROB30
TEMPO 0102/0103 3000 +SHRA
EGLL 301720Z AUTO 24010KT 9999 OVC016 12/09 Q1008 NOSIG
EGLL 301650Z AUTO 24010KT 210V270 9999 OVC016 12/08 Q1008
EGLL 301620Z AUTO 25010KT 9999 BKN018 OVC022 12/08 Q1009 NOSIG
EGLL 301550Z AUTO 26011KT 9999 BKN015 OVC021 12/09 Q1009 TEMPO BKN014
TAF EGLL 301656Z 3018/0124 25012KT 9999 SCT015
TEMPO 3018/3022 BKN014
PROB30
TEMPO 3018/3022 4000 RADZ BKN008
TEMPO 3020/0102 24018G28KT
TEMPO 3022/0106 6000 RA SHRA BKN009
PROB30
TEMPO 0102/0106 27015G25KT 3000 +SHRA
PROB40
TEMPO 0106/0113 29016G26KT
BECMG 0115/0118 34008KT
PROB30
TEMPO 0115/0118 6000 SHRA BKN014
EGHI 301720Z 23010KT 200V260 9999 BKN015 12/10 Q1009
EGHI 301650Z 23013KT 200V260 9999 BKN015 12/09 Q1010
EGHI 301620Z 22008KT 9999 BKN015 12/10 Q1010
EGHI 301550Z 22008KT 9999 FEW012 BKN015 12/10 Q1011
TAF EGHI 301702Z 3018/3023 24009KT 9999 BKN016
TEMPO 3018/3021 BKN014
PROB30
TEMPO 3018/3021 4000 -DZ
TEMPO 3021/3023 5000 RA BKN012
PROB30
TEMPO 3021/3023 27015G25KT 3000 +RA
EGHH 301720Z 25013KT 9999 FEW010 BKN012 12/10 Q1010
EGHH 301650Z 24010KT 9999 FEW010 BKN012 12/10 Q1010
EGHH 301620Z 24013KT 9999 FEW010 BKN012 12/10 Q1011
EGHH 301550Z 25012KT 9999 FEW014 BKN016 12/09 Q1011
TAF EGHH 301702Z 3018/3022 25012KT 9999 BKN018
TEMPO 3018/3021 BKN014
PROB30
TEMPO 3018/3021 4000 -DZ
TEMPO 3021/3022 5000 RA BKN012
PROB30
TEMPO 3021/3022 28015G25KT 3000 +RA
EGCC 301720Z AUTO 20005KT 9999 FEW023 09/08 Q1003 NOSIG
EGCC 301650Z AUTO 20005KT 9999 BKN021 BKN036 09/08 Q1003
EGCC 301620Z AUTO 21006KT 9999 BKN019 OVC023 10/09 Q1004 NOSIG
EGCC 301550Z AUTO 18003KT 150V220 9999 OVC018 10/09 Q1005
TAF EGCC 301656Z 3018/0124 20007KT 9999 BKN018
TEMPO 3018/0101 6000 RA BKN009
PROB30
TEMPO 3019/3023 3000 +RA BKN004
BECMG 3023/0102 30017G30KT
TEMPO 0102/0114 7000 SHRA
PROB30
TEMPO 0102/0114 4000 +SHRAGS BKN012 BKN020CB
BECMG 0110/0113 36010KT
BECMG 0116/0119 NSC
BECMG 0121/0124 30006KT
EGNX 301720Z 23012KT 9999 BKN018 10/08 Q1004
EGNX 301650Z 24014KT 9999 BKN017 10/08 Q1004
EGNX 301620Z 24015KT 9999 BKN017 10/08 Q1005
EGNX 301550Z 24017KT 9999 SCT017 11/08 Q1006
TAF EGNX 301701Z 3018/0118 23015KT 9999 SCT020
PROB30
TEMPO 3018/3021 BKN014
TEMPO 3021/0102 5000 RA BKN010
PROB30
TEMPO 3021/3024 23020G30KT
PROB30
TEMPO 3021/3023 3000 +RA BKN006
BECMG 0100/0103 29020G30KT
PROB30
TEMPO 0102/0115 6000 SHRA BKN012
EGGP 301720Z 17008KT 9999 FEW023 11/08 Q1002
EGGP 301650Z 19008KT 9999 FEW022 10/08 Q1003
EGGP 301620Z 20008KT 9999 FEW020 10/08 Q1004
EGGP 301550Z 23010KT 9999 SCT020 11/08 Q1004
TAF EGGP 301656Z 3018/0118 21009KT 9999 SCT020
TEMPO 3018/0101 6000 RA BKN010
PROB30
TEMPO 3018/3022 3000 +RA BKN007
BECMG 3019/3022 27015G25KT
BECMG 3022/0101 30020G32KT
TEMPO 0101/0114 7000 SHRA
PROB40
TEMPO 0101/0114 4000 +SHRAGS BKN012 BKN020CB
BECMG 0110/0113 36010KT
EGNM 301720Z 25016KT 9999 SCT006 BKN009 09/08 Q1001
EGNM 301650Z 25017G27KT 9000 SCT006 BKN009 09/08 Q1002
EGNM 301620Z 25014KT 9000 VCSH SCT008 BKN010 09/08 Q1003
EGNM 301550Z 25017KT 9000 -SHRA SCT008 BKN010 09/08 Q1003
TAF EGNM 301655Z 3018/0118 21014KT 9999 SCT010 BKN016
TEMPO 3018/0102 6000 RA BKN009
PROB40
TEMPO 3018/3023 22018G28KT
BECMG 3023/0102 29020G32KT
PROB30
TEMPO 0102/0104 8000 -RA
BECMG 0108/0111 35012KT
PROB40
TEMPO 0109/0116 8000 -RA BKN014
PROB40
TEMPO 0114/0118 36015G25KT
EGBB 301720Z 23007KT 200V280 9999 BKN017 11/08 Q1005
EGBB 301650Z 24009KT 210V270 9999 FEW019 11/08 Q1005
EGBB 301550Z 26008KT 220V300 9999 SCT021 11/08 Q1007
TAF EGBB 301701Z 3018/0118 23010KT 9999 SCT020
PROB30
TEMPO 3018/3020 BKN014
PROB30
TEMPO 3020/3023 3000 +RA BKN006
TEMPO 3021/0101 5000 RA BKN010
PROB30
TEMPO 3021/0101 25015G25KT
BECMG 0100/0103 29012KT
TEMPO 0101/0118 30015G25KT 6000 SHRA BKN012
PROB30
TEMPO 0101/0104 3000 +SHRA
PROB30
TEMPO 0113/0118 3000 +SHRA
EGGD 301720Z 23012KT 9000 -DZ SCT002 BKN004 09/09 Q1008
EGGD 301650Z 25014KT 1800 -DZ BR SCT002 OVC003 10/10 Q1009
EGGD 301620Z 25018KT 1500 -DZ BR OVC002 10/10 Q1009 RERA
EGGD 301550Z AUTO 25018KT 0450 R27/0900N RA FG VV/// 10/10 Q1010
TAF EGGD 301704Z 3018/0118 25015KT 9999 SCT004 BKN010
TEMPO 3018/3020 25018G28KT 1200 DZ BR OVC001
BECMG 3020/3023 24020G33KT 3000 RADZ BKN003
TEMPO 3021/0101 0400 +RA FG OVC001
BECMG 0100/0102 28015KT 9999 NSW SCT016
TEMPO 0102/0118 6000 SHRA BKN010
TEMPO 0102/0115 29020G33KT
PROB30
TEMPO 0102/0105 3000 +SHRA BKN007
PROB30
TEMPO 0114/0118 3000 +SHRA BKN007
BECMG 0115/0118 34013KT
EGFF 301720Z AUTO 26016KT 2300 RADZ OVC002 11/11 Q1008
EGFF 301650Z AUTO 26015KT 5000 -RADZ BKN003 BKN007 OVC015 11/11 Q1009
EGFF 301620Z AUTO 26016KT 5000 -DZ BKN003 OVC011 11/11 Q1009 REDZ
EGFF 301550Z AUTO 26016KT 9999 -RA OVC002 11/11 Q1010 RERA REDZ
TAF EGFF 301704Z 3018/0118 25014KT 9999 SCT007 BKN015
TEMPO 3018/3019 25018G28KT 3000 DZ BKN004
BECMG 3019/3022 24022G35KT 6000 RA BKN006
TEMPO 3020/3024 2000 +RA RADZ BKN003
BECMG 3023/0101 30015KT 9999 NSW SCT020
TEMPO 0101/0118 6000 SHRA BKN012
TEMPO 0101/0115 31020G33KT
PROB30
TEMPO 0101/0104 3000 +SHRA
PROB30
TEMPO 0114/0118 3000 +SHRA
BECMG 0115/0118 36013KT
EGTE 301720Z 21006KT 9999 BKN023 11/08 Q1010
EGTE 301650Z 22009KT 9999 FEW010 SCT020 11/08 Q1011
EGTE 301620Z 23007KT 9999 FEW011 BKN020 12/09 Q1011
EGTE 301550Z 25009KT 9999 SCT011 BKN023 12/09 Q1012
TAF EGTE 301701Z 3018/0103 23009KT 9999 SCT020
PROB30
TEMPO 3018/3021 4000 -DZ BKN012
PROB30
TEMPO 3018/0103 23015G25KT
TEMPO 3021/3024 5000 RA BKN014
PROB30
TEMPO 3021/3024 3000 +RA
BECMG 0100/0103 29010KT
TEMPO 0100/0103 6000 SHRA BKN014
PROB30
TEMPO 0100/0103 3000 +SHRA
EGPF 301720Z AUTO 22010KT 8000 -RA SCT024/// SCT032/// BKN038/// //////TCU 11/10
Q0995
EGPF 301650Z AUTO 22011KT 8000 -RA FEW029/// SCT045/// //////TCU 11/10 Q0996
RERA REDZ
EGPF 301620Z AUTO 24012KT 5000 -RADZ FEW006/// BKN012/// BKN025/// //////TCU
11/10 Q0997
EGPF 301550Z AUTO 24014KT 9999 BKN010 BKN017 BKN031 11/10 Q0998
TAF EGPF 301701Z 3018/0118 25012KT 9999 FEW030
BECMG 3018/3021 31012KT
TEMPO 3018/3024 7000 -RA BKN008
PROB40
TEMPO 3018/3021 2000 DZRA BR BKN003
TEMPO 0100/0109 6000 SHRA BKN012
PROB40
TEMPO 0100/0109 BKN008
BECMG 0107/0110 02008KT
EGPH 301720Z 24010KT 9999 SCT008 BKN033 11/10 Q0995
EGPH 301650Z 25010KT 9999 7000W BKN011 11/10 Q0996
EGPH 301620Z 24011KT 9999 5000W -RA BKN008 11/10 Q0997
EGPH 301550Z 22012KT 9999 6000W -RA BKN009 11/10 Q0997
TAF EGPH 301701Z 3018/0118 24009KT 9999 SCT010
TEMPO 3018/0101 7000 -RADZ BKN010
PROB40
TEMPO 3018/3021 2000 DZRA BR BKN004
TEMPO 3021/0106 31015G25KT
PROB40
TEMPO 3021/3024 3000 +RA BKN006
PROB40
TEMPO 0105/0112 7000 -RADZ BKN012
BECMG 0106/0109 01011KT
EGPK 301720Z 21013KT 7000 -RA SCT007 BKN014 10/10 Q0996
EGPK 301650Z 22012KT 9999 -RA SCT007 BKN014 10/10 Q0997
EGPK 301620Z 22013KT 9999 -RA BKN006 BKN011 11/10 Q0997
EGPK 301550Z 23017KT 8000 -RA BKN005 BKN009 11/10 Q0998
TAF COR EGPK 301703Z 3018/0118 24015KT 9999 SCT008 BKN016
TEMPO 3018/3022 6000 -RADZ BKN008
PROB40
TEMPO 3018/3022 3000 +RA BKN004
BECMG 3019/3022 31014KT
TEMPO 3022/0113 6000 SHRA BKN012
PROB40
TEMPO 3022/0112 BKN008
BECMG 0107/0110 02009KT
EHAM 301725Z 25005KT 7000 -RADZ FEW005 BKN007 BKN017 09/09 Q1005 TEMPO 4000
EHAM 301655Z VRB02KT 4500 -RADZ FEW005 BKN007 BKN017 09/08 Q1005 TEMPO 7000
BKN017
EHAM 301625Z 24003KT 9999 FEW004 SCT007 BKN021 09/08 Q1006 TEMPO 6000 -DZRA
BKN015
EHAM 301555Z 26004KT 9999 FEW003 SCT007 BKN015 09/08 Q1006 TEMPO 6000 -DZRA
TAF EHAM 301658Z 3018/0124 26010KT 4500 -RADZ BKN008 BKN015
BECMG 3019/3022 23017KT 9999 NSW SCT015 BKN025
PROB40
TEMPO 3022/0103 6000 -RADZ SCT010 BKN015
BECMG 0103/0105 24020G30KT 5000 RA SCT008 BKN012
BECMG 0107/0109 28020G30KT 9999 NSW SCT015 BKN025
TEMPO 0108/0117 30022G35KT 4000 SHRA SHRAGS SCT012 BKN018CB
BECMG 0114/0117 32013KT
PROB30
TEMPO 0117/0124 32015G25KT 6000 -SHRA SCT018CB BKN022
LFLS 301730Z AUTO 06008KT 9999 FEW044 SCT064 BKN084 01/M03 Q1023 NOSIG
LFLS 301700Z AUTO 06006KT 9999 SCT044 BKN052 BKN062 01/M02 Q1023 NOSIG
LFLS 301630Z AUTO 06006KT 9999 SCT047 BKN054 OVC064 01/M02 Q1023 NOSIG
LFLS 301600Z AUTO 07006KT 9999 FEW040 SCT046 OVC052 01/M02 Q1024 NOSIG
TAF LFLS 301400Z 3015/0115 10006KT CAVOK
TEMPO 3015/3021 BKN045
BECMG 0107/0109 BKN050
TEMPO 0109/0115 4000 RA SCT030 BKN040
LFLL 301730Z 12007KT 9999 BKN040 03/M01 Q1023 NOSIG
LFLL 301700Z 13008KT 9999 BKN040 04/M01 Q1024 NOSIG
LFLL 301630Z 14009KT 9999 BKN046 BKN056 03/M01 Q1024 NOSIG
LFLL 301600Z 13008KT 9999 BKN046 BKN083 03/M01 Q1024 NOSIG
TAF LFLL 301700Z 3018/0124 16005KT 9999 BKN040
BECMG 0108/0110 18015G25KT
TEMPO 0110/0115 4000 RA
PROB40
TEMPO 0113/0115 19020G35KT
PROB30
TEMPO 0115/0124 4000 -SHRA FEW035TCU OVC040
BECMG 0118/0120 20008KT
LFLC 301730Z AUTO VRB03KT CAVOK 06/M01 Q1022 NOSIG
LFLC 301700Z AUTO VRB02KT 9999 FEW054 OVC084 06/M01 Q1022 NOSIG
LFLC 301630Z AUTO VRB02KT 9999 FEW043 BKN050 OVC088 07/M01 Q1022 NOSIG
LFLC 301600Z AUTO 20004KT 140V260 9999 SCT043 BKN050 07/M00 Q1022 NOSIG
TAF LFLC 301700Z 3018/0118 18009KT CAVOK
BECMG 3020/3022 BKN040
TEMPO 0106/0112 20015G25KT -RA SCT030 BKN035
BECMG 0111/0113 25009KT SCT040
LFRD 301730Z AUTO 23011KT 9999 OVC021 10/08 Q1017 TEMPO BKN013
LFRD 301700Z AUTO 23012KT 9999 OVC022 10/08 Q1017 TEMPO BKN013
LFRD 301630Z AUTO 23010KT 9999 OVC024 10/09 Q1018 TEMPO BKN013
LFRD 301600Z AUTO 24010KT 9999 BKN022 OVC028 11/08 Q1018 TEMPO BKN013
TAF LFRD 301700Z 3018/0118 24010KT 9999 BKN025
TEMPO 3018/3024 -RA BKN013
BECMG 3022/3024 23020G30KT
TEMPO 0100/0104 3000 RA OVC010
BECMG 0102/0104 29018KT
TEMPO 0104/0118 30020G35KT 4000 SHRA BKN025TCU
PROB40
TEMPO 0108/0118 BKN025CB
LFRC 301730Z AUTO 25016KT 9999 BKN008 OVC017 10/09 Q1013 TEMPO 25020G30KT 4000
RADZ
LFRC 301700Z AUTO 25017KT 9999 OVC007 10/09 Q1014 TEMPO 25020G30KT 4000 RADZ
LFRC 301630Z AUTO 25016KT 9999 BKN008 OVC014 10/09 Q1014 TEMPO 25020G30KT 4000
RADZ
LFRC 301600Z AUTO 26017KT 9999 BKN008 OVC019 10/09 Q1014 TEMPO 25020G30KT 4000
RADZ
TAF LFRC 301400Z 3015/3024 27020KT 9999 BKN012
TEMPO 3015/3024 25020G30KT 4000 RADZ BKN006
BECMG 3019/3021 21020G35KT
VHHH 301730Z 04007KT 010V110 CAVOK 17/01 Q1021 NOSIG
VHHH 301700Z VRB03KT CAVOK 17/02 Q1021 NOSIG
VHHH 301630Z 01007KT 330V050 CAVOK 17/03 Q1021 NOSIG
VHHH 301600Z 01011KT 340V050 CAVOK 17/02 Q1021 NOSIG
TAF VHHH 301700Z 3018/0124 03015KT CAVOK TX20/0106Z TN14/3023Z TN13/0123Z
TEMPO 3018/3024 36020G30KT